sensor_id;sensor_type;location;lat;lon;timestamp;P1;durP1;ratioP1;P2;durP2;ratioP2
27533;SDS011;14973;51.460;7.008;2023-09-19T00:01:18;24.98;;;3.75;;
27533;SDS011;14973;51.460;7.008;2023-09-19T00:03:45;15.10;;;3.15;;
27533;SDS011;14973;51.460;7.008;2023-09-19T00:06:11;15.55;;;3.45;;
27533;SDS011;14973;51.460;7.008;2023-09-19T00:08:40;17.77;;;3.53;;
27533;SDS011;14973;51.460;7.008;2023-09-19T00:11:09;16.10;;;3.25;;
27533;SDS011;14973;51.460;7.008;2023-09-19T00:13:36;14.30;;;4.13;;
27533;SDS011;14973;51.460;7.008;2023-09-19T00:16:07;26.60;;;3.63;;
27533;SDS011;14973;51.460;7.008;2023-09-19T00:18:35;18.02;;;3.05;;
27533;SDS011;14973;51.460;7.008;2023-09-19T00:21:01;17.13;;;3.00;;
27533;SDS011;14973;51.460;7.008;2023-09-19T00:23:29;23.00;;;3.05;;
27533;SDS011;14973;51.460;7.008;2023-09-19T00:25:58;23.27;;;3.70;;
27533;SDS011;14973;51.460;7.008;2023-09-19T00:28:24;16.50;;;3.30;;
27533;SDS011;14973;51.460;7.008;2023-09-19T00:30:51;20.05;;;3.22;;
27533;SDS011;14973;51.460;7.008;2023-09-19T00:33:16;26.85;;;3.92;;
27533;SDS011;14973;51.460;7.008;2023-09-19T00:35:50;13.27;;;2.78;;
27533;SDS011;14973;51.460;7.008;2023-09-19T00:38:17;16.88;;;3.50;;
27533;SDS011;14973;51.460;7.008;2023-09-19T00:40:46;13.32;;;3.60;;
27533;SDS011;14973;51.460;7.008;2023-09-19T00:43:12;18.10;;;3.47;;
27533;SDS011;14973;51.460;7.008;2023-09-19T00:45:38;13.05;;;3.40;;
27533;SDS011;14973;51.460;7.008;2023-09-19T00:48:07;18.83;;;3.40;;
27533;SDS011;14973;51.460;7.008;2023-09-19T00:50:34;20.35;;;3.00;;
27533;SDS011;14973;51.460;7.008;2023-09-19T00:53:01;21.48;;;3.53;;
27533;SDS011;14973;51.460;7.008;2023-09-19T00:55:32;35.78;;;3.88;;
27533;SDS011;14973;51.460;7.008;2023-09-19T00:58:02;21.95;;;3.17;;
27533;SDS011;14973;51.460;7.008;2023-09-19T01:00:29;22.40;;;3.20;;
27533;SDS011;14973;51.460;7.008;2023-09-19T01:02:54;22.10;;;3.42;;
27533;SDS011;14973;51.460;7.008;2023-09-19T01:05:20;22.13;;;3.25;;
27533;SDS011;14973;51.460;7.008;2023-09-19T01:07:46;19.25;;;3.72;;
27533;SDS011;14973;51.460;7.008;2023-09-19T01:10:15;22.77;;;4.13;;
27533;SDS011;14973;51.460;7.008;2023-09-19T01:26:04;26.40;;;3.72;;
27533;SDS011;14973;51.460;7.008;2023-09-19T01:31:22;20.58;;;3.15;;
27533;SDS011;14973;51.460;7.008;2023-09-19T01:36:26;33.42;;;4.32;;
27533;SDS011;14973;51.460;7.008;2023-09-19T01:39:02;16.88;;;3.58;;
27533;SDS011;14973;51.460;7.008;2023-09-19T01:41:41;24.40;;;4.25;;
27533;SDS011;14973;51.460;7.008;2023-09-19T01:44:22;28.13;;;3.63;;
27533;SDS011;14973;51.460;7.008;2023-09-19T01:47:04;22.67;;;4.72;;
27533;SDS011;14973;51.460;7.008;2023-09-19T01:52:23;18.73;;;2.78;;
27533;SDS011;14973;51.460;7.008;2023-09-19T01:54:55;27.52;;;3.35;;
27533;SDS011;14973;51.460;7.008;2023-09-19T01:57:32;20.65;;;3.67;;
27533;SDS011;14973;51.460;7.008;2023-09-19T02:00:05;16.80;;;3.00;;
27533;SDS011;14973;51.460;7.008;2023-09-19T02:02:40;17.27;;;3.30;;
27533;SDS011;14973;51.460;7.008;2023-09-19T02:05:09;18.98;;;3.78;;
27533;SDS011;14973;51.460;7.008;2023-09-19T02:07:36;26.77;;;4.25;;
27533;SDS011;14973;51.460;7.008;2023-09-19T02:10:06;20.73;;;3.70;;
27533;SDS011;14973;51.460;7.008;2023-09-19T02:12:35;25.00;;;3.78;;
27533;SDS011;14973;51.460;7.008;2023-09-19T02:15:00;26.13;;;3.92;;
27533;SDS011;14973;51.460;7.008;2023-09-19T02:17:26;29.75;;;3.53;;
27533;SDS011;14973;51.460;7.008;2023-09-19T02:19:52;24.05;;;4.97;;
27533;SDS011;14973;51.460;7.008;2023-09-19T02:22:18;22.77;;;3.78;;
27533;SDS011;14973;51.460;7.008;2023-09-19T02:24:44;27.27;;;3.75;;
27533;SDS011;14973;51.460;7.008;2023-09-19T02:27:13;19.40;;;3.58;;
27533;SDS011;14973;51.460;7.008;2023-09-19T02:29:40;31.25;;;3.80;;
27533;SDS011;14973;51.460;7.008;2023-09-19T02:32:09;19.33;;;3.15;;
27533;SDS011;14973;51.460;7.008;2023-09-19T02:34:35;20.85;;;3.35;;
27533;SDS011;14973;51.460;7.008;2023-09-19T02:37:04;17.35;;;3.13;;
27533;SDS011;14973;51.460;7.008;2023-09-19T02:39:34;17.40;;;3.08;;
27533;SDS011;14973;51.460;7.008;2023-09-19T02:42:01;24.33;;;3.45;;
27533;SDS011;14973;51.460;7.008;2023-09-19T02:44:27;21.75;;;3.70;;
27533;SDS011;14973;51.460;7.008;2023-09-19T02:46:52;25.52;;;3.90;;
27533;SDS011;14973;51.460;7.008;2023-09-19T02:49:18;21.20;;;3.75;;
27533;SDS011;14973;51.460;7.008;2023-09-19T02:51:44;21.65;;;3.30;;
27533;SDS011;14973;51.460;7.008;2023-09-19T02:54:10;23.23;;;3.88;;
27533;SDS011;14973;51.460;7.008;2023-09-19T02:56:36;17.88;;;3.38;;
27533;SDS011;14973;51.460;7.008;2023-09-19T02:59:03;19.00;;;3.25;;
27533;SDS011;14973;51.460;7.008;2023-09-19T03:01:28;24.27;;;3.40;;
27533;SDS011;14973;51.460;7.008;2023-09-19T03:03:54;26.80;;;4.15;;
27533;SDS011;14973;51.460;7.008;2023-09-19T03:06:20;24.60;;;3.45;;
27533;SDS011;14973;51.460;7.008;2023-09-19T03:08:47;15.55;;;3.30;;
27533;SDS011;14973;51.460;7.008;2023-09-19T03:11:13;16.50;;;3.58;;
27533;SDS011;14973;51.460;7.008;2023-09-19T03:16:37;18.48;;;3.33;;
27533;SDS011;14973;51.460;7.008;2023-09-19T03:19:03;34.40;;;4.28;;
27533;SDS011;14973;51.460;7.008;2023-09-19T03:21:28;22.42;;;3.90;;
27533;SDS011;14973;51.460;7.008;2023-09-19T03:23:55;21.95;;;3.92;;
27533;SDS011;14973;51.460;7.008;2023-09-19T03:26:21;23.33;;;3.20;;
27533;SDS011;14973;51.460;7.008;2023-09-19T03:28:46;25.38;;;3.22;;
27533;SDS011;14973;51.460;7.008;2023-09-19T03:31:12;15.95;;;3.60;;
27533;SDS011;14973;51.460;7.008;2023-09-19T03:33:37;23.13;;;3.33;;
27533;SDS011;14973;51.460;7.008;2023-09-19T03:36:03;22.50;;;4.65;;
27533;SDS011;14973;51.460;7.008;2023-09-19T03:38:30;17.15;;;3.33;;
27533;SDS011;14973;51.460;7.008;2023-09-19T03:40:56;22.73;;;4.78;;
27533;SDS011;14973;51.460;7.008;2023-09-19T03:43:22;14.55;;;3.22;;
27533;SDS011;14973;51.460;7.008;2023-09-19T03:45:48;22.65;;;3.58;;
27533;SDS011;14973;51.460;7.008;2023-09-19T03:48:14;20.30;;;3.75;;
27533;SDS011;14973;51.460;7.008;2023-09-19T03:50:39;13.52;;;2.83;;
27533;SDS011;14973;51.460;7.008;2023-09-19T03:53:05;18.85;;;3.60;;
27533;SDS011;14973;51.460;7.008;2023-09-19T03:55:32;11.80;;;2.70;;
27533;SDS011;14973;51.460;7.008;2023-09-19T03:58:00;17.25;;;3.22;;
27533;SDS011;14973;51.460;7.008;2023-09-19T04:00:26;18.02;;;3.03;;
27533;SDS011;14973;51.460;7.008;2023-09-19T04:02:52;23.80;;;3.47;;
27533;SDS011;14973;51.460;7.008;2023-09-19T04:05:18;22.00;;;3.42;;
27533;SDS011;14973;51.460;7.008;2023-09-19T04:07:44;19.15;;;3.72;;
27533;SDS011;14973;51.460;7.008;2023-09-19T04:10:10;16.52;;;3.15;;
27533;SDS011;14973;51.460;7.008;2023-09-19T04:12:39;19.15;;;4.38;;
27533;SDS011;14973;51.460;7.008;2023-09-19T04:15:05;19.45;;;3.50;;
27533;SDS011;14973;51.460;7.008;2023-09-19T04:17:32;21.60;;;3.25;;
27533;SDS011;14973;51.460;7.008;2023-09-19T04:19:58;15.48;;;2.63;;
27533;SDS011;14973;51.460;7.008;2023-09-19T04:22:24;14.00;;;2.85;;
27533;SDS011;14973;51.460;7.008;2023-09-19T04:24:49;13.90;;;2.97;;
27533;SDS011;14973;51.460;7.008;2023-09-19T04:27:15;16.27;;;3.38;;
27533;SDS011;14973;51.460;7.008;2023-09-19T04:29:41;17.00;;;3.60;;
27533;SDS011;14973;51.460;7.008;2023-09-19T04:32:07;22.48;;;3.63;;
27533;SDS011;14973;51.460;7.008;2023-09-19T04:34:35;31.48;;;4.60;;
27533;SDS011;14973;51.460;7.008;2023-09-19T04:37:01;27.90;;;3.55;;
27533;SDS011;14973;51.460;7.008;2023-09-19T04:39:28;17.17;;;3.22;;
27533;SDS011;14973;51.460;7.008;2023-09-19T04:41:54;17.08;;;3.47;;
27533;SDS011;14973;51.460;7.008;2023-09-19T04:44:20;15.68;;;3.20;;
27533;SDS011;14973;51.460;7.008;2023-09-19T04:46:46;21.33;;;3.60;;
27533;SDS011;14973;51.460;7.008;2023-09-19T04:49:12;25.20;;;3.75;;
27533;SDS011;14973;51.460;7.008;2023-09-19T04:51:38;24.20;;;3.53;;
27533;SDS011;14973;51.460;7.008;2023-09-19T04:54:04;21.33;;;3.67;;
27533;SDS011;14973;51.460;7.008;2023-09-19T04:56:30;23.23;;;3.80;;
27533;SDS011;14973;51.460;7.008;2023-09-19T04:58:57;21.38;;;3.25;;
27533;SDS011;14973;51.460;7.008;2023-09-19T05:01:23;17.98;;;3.28;;
27533;SDS011;14973;51.460;7.008;2023-09-19T05:03:49;21.58;;;3.30;;
27533;SDS011;14973;51.460;7.008;2023-09-19T05:06:21;24.77;;;3.20;;
27533;SDS011;14973;51.460;7.008;2023-09-19T05:08:47;17.95;;;3.40;;
27533;SDS011;14973;51.460;7.008;2023-09-19T05:11:20;18.95;;;3.22;;
27533;SDS011;14973;51.460;7.008;2023-09-19T05:13:47;15.07;;;3.42;;
27533;SDS011;14973;51.460;7.008;2023-09-19T05:16:14;15.20;;;3.65;;
27533;SDS011;14973;51.460;7.008;2023-09-19T05:18:41;18.45;;;3.15;;
27533;SDS011;14973;51.460;7.008;2023-09-19T05:21:07;16.50;;;2.78;;
27533;SDS011;14973;51.460;7.008;2023-09-19T05:23:32;23.58;;;4.10;;
27533;SDS011;14973;51.460;7.008;2023-09-19T05:25:58;24.40;;;3.92;;
27533;SDS011;14973;51.460;7.008;2023-09-19T05:28:25;14.88;;;3.03;;
27533;SDS011;14973;51.460;7.008;2023-09-19T05:30:51;27.58;;;3.63;;
27533;SDS011;14973;51.460;7.008;2023-09-19T05:33:18;17.40;;;3.65;;
27533;SDS011;14973;51.460;7.008;2023-09-19T05:35:43;25.70;;;4.30;;
27533;SDS011;14973;51.460;7.008;2023-09-19T05:38:10;18.98;;;5.97;;
27533;SDS011;14973;51.460;7.008;2023-09-19T05:40:37;24.38;;;3.40;;
27533;SDS011;14973;51.460;7.008;2023-09-19T05:43:05;19.45;;;3.67;;
27533;SDS011;14973;51.460;7.008;2023-09-19T05:45:31;17.98;;;6.03;;
27533;SDS011;14973;51.460;7.008;2023-09-19T05:48:05;21.40;;;4.25;;
27533;SDS011;14973;51.460;7.008;2023-09-19T05:50:36;24.88;;;7.20;;
27533;SDS011;14973;51.460;7.008;2023-09-19T05:53:02;20.67;;;3.95;;
27533;SDS011;14973;51.460;7.008;2023-09-19T05:55:29;20.95;;;4.57;;
27533;SDS011;14973;51.460;7.008;2023-09-19T05:57:55;19.30;;;3.42;;
27533;SDS011;14973;51.460;7.008;2023-09-19T06:00:21;18.00;;;4.25;;
27533;SDS011;14973;51.460;7.008;2023-09-19T06:02:51;22.48;;;3.40;;
27533;SDS011;14973;51.460;7.008;2023-09-19T06:05:22;23.60;;;4.45;;
27533;SDS011;14973;51.460;7.008;2023-09-19T06:07:51;23.17;;;2.90;;
27533;SDS011;14973;51.460;7.008;2023-09-19T06:10:17;23.15;;;3.63;;
27533;SDS011;14973;51.460;7.008;2023-09-19T06:12:45;29.52;;;3.45;;
27533;SDS011;14973;51.460;7.008;2023-09-19T06:15:15;20.13;;;3.80;;
27533;SDS011;14973;51.460;7.008;2023-09-19T06:17:47;22.45;;;3.83;;
27533;SDS011;14973;51.460;7.008;2023-09-19T06:20:13;19.48;;;3.58;;
27533;SDS011;14973;51.460;7.008;2023-09-19T06:22:40;37.40;;;3.72;;
27533;SDS011;14973;51.460;7.008;2023-09-19T06:25:07;20.38;;;3.45;;
27533;SDS011;14973;51.460;7.008;2023-09-19T06:27:36;24.63;;;3.40;;
27533;SDS011;14973;51.460;7.008;2023-09-19T06:30:02;23.17;;;3.88;;
27533;SDS011;14973;51.460;7.008;2023-09-19T06:32:28;26.63;;;4.60;;
27533;SDS011;14973;51.460;7.008;2023-09-19T06:34:53;20.27;;;3.53;;
27533;SDS011;14973;51.460;7.008;2023-09-19T06:37:20;18.55;;;3.65;;
27533;SDS011;14973;51.460;7.008;2023-09-19T06:39:46;24.42;;;3.55;;
27533;SDS011;14973;51.460;7.008;2023-09-19T06:42:14;16.80;;;3.47;;
27533;SDS011;14973;51.460;7.008;2023-09-19T06:44:42;19.10;;;3.42;;
27533;SDS011;14973;51.460;7.008;2023-09-19T06:47:08;22.98;;;3.50;;
27533;SDS011;14973;51.460;7.008;2023-09-19T06:49:35;21.02;;;3.13;;
27533;SDS011;14973;51.460;7.008;2023-09-19T06:52:00;17.92;;;3.63;;
27533;SDS011;14973;51.460;7.008;2023-09-19T06:54:27;24.63;;;3.67;;
27533;SDS011;14973;51.460;7.008;2023-09-19T06:56:59;19.10;;;3.28;;
27533;SDS011;14973;51.460;7.008;2023-09-19T06:59:24;17.95;;;2.97;;
27533;SDS011;14973;51.460;7.008;2023-09-19T07:01:50;18.33;;;3.38;;
27533;SDS011;14973;51.460;7.008;2023-09-19T07:04:16;14.52;;;3.50;;
27533;SDS011;14973;51.460;7.008;2023-09-19T07:06:44;28.55;;;3.75;;
27533;SDS011;14973;51.460;7.008;2023-09-19T07:09:16;21.10;;;3.55;;
27533;SDS011;14973;51.460;7.008;2023-09-19T07:11:44;23.25;;;3.45;;
27533;SDS011;14973;51.460;7.008;2023-09-19T07:14:10;18.88;;;3.65;;
27533;SDS011;14973;51.460;7.008;2023-09-19T07:16:38;22.52;;;3.65;;
27533;SDS011;14973;51.460;7.008;2023-09-19T07:19:05;19.00;;;3.20;;
27533;SDS011;14973;51.460;7.008;2023-09-19T07:21:31;21.02;;;3.90;;
27533;SDS011;14973;51.460;7.008;2023-09-19T07:24:00;19.02;;;3.30;;
27533;SDS011;14973;51.460;7.008;2023-09-19T07:26:27;21.23;;;2.85;;
27533;SDS011;14973;51.460;7.008;2023-09-19T07:28:53;23.58;;;3.78;;
27533;SDS011;14973;51.460;7.008;2023-09-19T07:31:20;15.05;;;3.20;;
27533;SDS011;14973;51.460;7.008;2023-09-19T07:33:47;18.88;;;3.30;;
27533;SDS011;14973;51.460;7.008;2023-09-19T07:36:14;16.95;;;3.90;;
27533;SDS011;14973;51.460;7.008;2023-09-19T07:38:40;23.02;;;3.83;;
27533;SDS011;14973;51.460;7.008;2023-09-19T07:41:06;18.85;;;3.40;;
27533;SDS011;14973;51.460;7.008;2023-09-19T07:43:33;20.27;;;3.50;;
27533;SDS011;14973;51.460;7.008;2023-09-19T07:46:05;25.70;;;4.80;;
27533;SDS011;14973;51.460;7.008;2023-09-19T07:48:33;22.13;;;3.60;;
27533;SDS011;14973;51.460;7.008;2023-09-19T07:51:04;20.75;;;4.43;;
27533;SDS011;14973;51.460;7.008;2023-09-19T07:53:31;18.80;;;3.10;;
27533;SDS011;14973;51.460;7.008;2023-09-19T07:56:05;17.15;;;2.85;;
27533;SDS011;14973;51.460;7.008;2023-09-19T07:58:32;17.20;;;3.67;;
27533;SDS011;14973;51.460;7.008;2023-09-19T08:01:02;19.92;;;3.33;;
27533;SDS011;14973;51.460;7.008;2023-09-19T08:03:34;24.90;;;3.67;;
27533;SDS011;14973;51.460;7.008;2023-09-19T08:06:05;24.95;;;3.92;;
27533;SDS011;14973;51.460;7.008;2023-09-19T08:08:31;18.73;;;2.83;;
27533;SDS011;14973;51.460;7.008;2023-09-19T08:10:59;17.23;;;3.70;;
27533;SDS011;14973;51.460;7.008;2023-09-19T08:13:26;17.45;;;3.33;;
27533;SDS011;14973;51.460;7.008;2023-09-19T08:15:52;18.98;;;4.07;;
27533;SDS011;14973;51.460;7.008;2023-09-19T08:18:21;17.58;;;2.90;;
27533;SDS011;14973;51.460;7.008;2023-09-19T08:20:51;22.75;;;3.47;;
27533;SDS011;14973;51.460;7.008;2023-09-19T08:23:17;22.02;;;3.53;;
27533;SDS011;14973;51.460;7.008;2023-09-19T08:25:45;18.92;;;3.10;;
27533;SDS011;14973;51.460;7.008;2023-09-19T08:28:11;18.30;;;3.25;;
27533;SDS011;14973;51.460;7.008;2023-09-19T08:30:43;21.85;;;4.30;;
27533;SDS011;14973;51.460;7.008;2023-09-19T08:33:12;24.45;;;3.53;;
27533;SDS011;14973;51.460;7.008;2023-09-19T08:35:40;22.63;;;4.13;;
27533;SDS011;14973;51.460;7.008;2023-09-19T08:38:09;19.55;;;3.33;;
27533;SDS011;14973;51.460;7.008;2023-09-19T08:40:38;13.20;;;2.83;;
27533;SDS011;14973;51.460;7.008;2023-09-19T08:43:06;17.02;;;3.33;;
27533;SDS011;14973;51.460;7.008;2023-09-19T08:45:32;19.23;;;3.67;;
27533;SDS011;14973;51.460;7.008;2023-09-19T08:51:12;13.15;;;3.13;;
27533;SDS011;14973;51.460;7.008;2023-09-19T08:54:03;15.38;;;3.38;;
27533;SDS011;14973;51.460;7.008;2023-09-19T08:56:32;15.18;;;2.55;;
27533;SDS011;14973;51.460;7.008;2023-09-19T08:59:05;16.83;;;3.28;;
27533;SDS011;14973;51.460;7.008;2023-09-19T09:01:34;14.95;;;3.67;;
27533;SDS011;14973;51.460;7.008;2023-09-19T09:04:01;17.30;;;3.42;;
27533;SDS011;14973;51.460;7.008;2023-09-19T09:06:27;19.05;;;3.17;;
27533;SDS011;14973;51.460;7.008;2023-09-19T09:08:54;14.25;;;3.10;;
27533;SDS011;14973;51.460;7.008;2023-09-19T09:11:20;15.27;;;3.50;;
27533;SDS011;14973;51.460;7.008;2023-09-19T09:13:46;16.77;;;3.03;;
27533;SDS011;14973;51.460;7.008;2023-09-19T09:16:13;17.33;;;3.22;;
27533;SDS011;14973;51.460;7.008;2023-09-19T09:18:43;15.93;;;3.90;;
27533;SDS011;14973;51.460;7.008;2023-09-19T09:21:09;17.63;;;3.45;;
27533;SDS011;14973;51.460;7.008;2023-09-19T09:23:35;11.95;;;2.55;;
27533;SDS011;14973;51.460;7.008;2023-09-19T09:26:01;21.65;;;3.42;;
27533;SDS011;14973;51.460;7.008;2023-09-19T09:28:31;22.30;;;3.05;;
27533;SDS011;14973;51.460;7.008;2023-09-19T09:30:58;18.80;;;3.42;;
27533;SDS011;14973;51.460;7.008;2023-09-19T09:33:26;15.18;;;4.28;;
27533;SDS011;14973;51.460;7.008;2023-09-19T09:35:53;14.25;;;3.25;;
27533;SDS011;14973;51.460;7.008;2023-09-19T09:38:28;14.82;;;3.22;;
27533;SDS011;14973;51.460;7.008;2023-09-19T09:41:15;18.00;;;3.60;;
27533;SDS011;14973;51.460;7.008;2023-09-19T09:43:52;19.33;;;3.35;;
27533;SDS011;14973;51.460;7.008;2023-09-19T09:46:24;25.27;;;3.95;;
27533;SDS011;14973;51.460;7.008;2023-09-19T09:49:02;17.50;;;2.95;;
27533;SDS011;14973;51.460;7.008;2023-09-19T09:52:04;11.27;;;2.85;;
27533;SDS011;14973;51.460;7.008;2023-09-19T09:54:57;12.68;;;3.13;;
27533;SDS011;14973;51.460;7.008;2023-09-19T09:57:30;12.80;;;3.15;;
27533;SDS011;14973;51.460;7.008;2023-09-19T09:59:56;18.33;;;3.00;;
27533;SDS011;14973;51.460;7.008;2023-09-19T10:02:38;14.30;;;3.28;;
27533;SDS011;14973;51.460;7.008;2023-09-19T10:05:13;23.25;;;3.58;;
27533;SDS011;14973;51.460;7.008;2023-09-19T10:07:49;23.45;;;4.25;;
27533;SDS011;14973;51.460;7.008;2023-09-19T10:13:11;18.27;;;4.15;;
27533;SDS011;14973;51.460;7.008;2023-09-19T10:15:42;15.55;;;3.22;;
27533;SDS011;14973;51.460;7.008;2023-09-19T10:18:15;12.88;;;3.22;;
27533;SDS011;14973;51.460;7.008;2023-09-19T10:20:46;16.25;;;3.05;;
27533;SDS011;14973;51.460;7.008;2023-09-19T10:23:13;11.02;;;3.30;;
27533;SDS011;14973;51.460;7.008;2023-09-19T10:25:47;15.15;;;3.28;;
27533;SDS011;14973;51.460;7.008;2023-09-19T10:28:14;19.90;;;4.75;;
27533;SDS011;14973;51.460;7.008;2023-09-19T10:30:41;17.55;;;3.38;;
27533;SDS011;14973;51.460;7.008;2023-09-19T10:33:12;14.13;;;2.80;;
27533;SDS011;14973;51.460;7.008;2023-09-19T10:35:40;21.20;;;2.90;;
27533;SDS011;14973;51.460;7.008;2023-09-19T10:38:11;12.68;;;3.38;;
27533;SDS011;14973;51.460;7.008;2023-09-19T10:40:44;21.50;;;5.85;;
27533;SDS011;14973;51.460;7.008;2023-09-19T10:43:15;19.60;;;3.78;;
27533;SDS011;14973;51.460;7.008;2023-09-19T10:45:46;21.30;;;2.95;;
27533;SDS011;14973;51.460;7.008;2023-09-19T10:48:17;13.60;;;3.50;;
27533;SDS011;14973;51.460;7.008;2023-09-19T10:53:20;21.35;;;4.30;;
27533;SDS011;14973;51.460;7.008;2023-09-19T10:55:49;17.98;;;3.42;;
27533;SDS011;14973;51.460;7.008;2023-09-19T10:58:52;16.50;;;2.90;;
27533;SDS011;14973;51.460;7.008;2023-09-19T11:01:11;15.93;;;3.00;;
27533;SDS011;14973;51.460;7.008;2023-09-19T11:03:37;17.80;;;3.83;;
27533;SDS011;14973;51.460;7.008;2023-09-19T11:08:52;19.08;;;3.17;;
27533;SDS011;14973;51.460;7.008;2023-09-19T11:12:05;19.02;;;3.40;;
27533;SDS011;14973;51.460;7.008;2023-09-19T11:30:39;19.35;;;3.60;;
27533;SDS011;14973;51.460;7.008;2023-09-19T11:33:17;10.30;;;2.38;;
27533;SDS011;14973;51.460;7.008;2023-09-19T11:35:58;15.75;;;3.70;;
27533;SDS011;14973;51.460;7.008;2023-09-19T11:43:53;9.52;;;2.58;;
27533;SDS011;14973;51.460;7.008;2023-09-19T11:46:34;13.20;;;2.95;;
27533;SDS011;14973;51.460;7.008;2023-09-19T11:49:18;12.15;;;3.10;;
27533;SDS011;14973;51.460;7.008;2023-09-19T11:51:51;15.63;;;3.10;;
27533;SDS011;14973;51.460;7.008;2023-09-19T11:54:17;13.43;;;2.90;;
27533;SDS011;14973;51.460;7.008;2023-09-19T11:56:46;21.38;;;3.35;;
27533;SDS011;14973;51.460;7.008;2023-09-19T12:01:52;19.92;;;3.22;;
27533;SDS011;14973;51.460;7.008;2023-09-19T12:04:37;15.35;;;2.55;;
27533;SDS011;14973;51.460;7.008;2023-09-19T12:07:08;12.93;;;2.88;;
27533;SDS011;14973;51.460;7.008;2023-09-19T12:12:20;18.98;;;4.05;;
27533;SDS011;14973;51.460;7.008;2023-09-19T12:14:48;15.88;;;3.38;;
27533;SDS011;14973;51.460;7.008;2023-09-19T12:17:15;13.75;;;3.50;;
27533;SDS011;14973;51.460;7.008;2023-09-19T12:19:55;21.27;;;4.15;;
27533;SDS011;14973;51.460;7.008;2023-09-19T12:22:22;12.80;;;3.10;;
27533;SDS011;14973;51.460;7.008;2023-09-19T12:24:47;14.23;;;2.65;;
27533;SDS011;14973;51.460;7.008;2023-09-19T12:27:13;17.23;;;3.15;;
27533;SDS011;14973;51.460;7.008;2023-09-19T12:29:46;15.65;;;2.67;;
27533;SDS011;14973;51.460;7.008;2023-09-19T12:32:14;15.77;;;2.80;;
27533;SDS011;14973;51.460;7.008;2023-09-19T12:34:42;12.10;;;3.05;;
27533;SDS011;14973;51.460;7.008;2023-09-19T12:37:15;8.18;;;2.53;;
27533;SDS011;14973;51.460;7.008;2023-09-19T12:39:45;15.90;;;3.22;;
27533;SDS011;14973;51.460;7.008;2023-09-19T12:42:13;11.88;;;2.75;;
27533;SDS011;14973;51.460;7.008;2023-09-19T12:44:41;15.38;;;2.70;;
27533;SDS011;14973;51.460;7.008;2023-09-19T12:47:12;13.80;;;2.58;;
27533;SDS011;14973;51.460;7.008;2023-09-19T12:52:38;13.02;;;2.70;;
27533;SDS011;14973;51.460;7.008;2023-09-19T12:55:19;12.13;;;2.47;;
27533;SDS011;14973;51.460;7.008;2023-09-19T13:03:17;15.85;;;2.67;;
27533;SDS011;14973;51.460;7.008;2023-09-19T13:05:47;13.55;;;3.35;;
27533;SDS011;14973;51.460;7.008;2023-09-19T13:08:17;12.18;;;2.67;;
27533;SDS011;14973;51.460;7.008;2023-09-19T13:16:52;11.02;;;2.45;;
27533;SDS011;14973;51.460;7.008;2023-09-19T13:19:40;11.55;;;2.38;;
27533;SDS011;14973;51.460;7.008;2023-09-19T13:25:17;15.68;;;2.20;;
27533;SDS011;14973;51.460;7.008;2023-09-19T13:27:44;10.48;;;2.38;;
27533;SDS011;14973;51.460;7.008;2023-09-19T13:30:11;12.63;;;2.65;;
27533;SDS011;14973;51.460;7.008;2023-09-19T13:32:37;11.68;;;2.00;;
27533;SDS011;14973;51.460;7.008;2023-09-19T13:35:05;9.98;;;1.98;;
27533;SDS011;14973;51.460;7.008;2023-09-19T13:37:33;19.70;;;2.65;;
27533;SDS011;14973;51.460;7.008;2023-09-19T13:40:06;8.10;;;1.98;;
27533;SDS011;14973;51.460;7.008;2023-09-19T13:42:33;10.13;;;2.20;;
27533;SDS011;14973;51.460;7.008;2023-09-19T13:44:58;12.85;;;3.22;;
27533;SDS011;14973;51.460;7.008;2023-09-19T13:47:24;14.52;;;2.13;;
27533;SDS011;14973;51.460;7.008;2023-09-19T13:49:51;10.60;;;2.30;;
27533;SDS011;14973;51.460;7.008;2023-09-19T13:52:20;9.65;;;1.73;;
27533;SDS011;14973;51.460;7.008;2023-09-19T13:54:48;12.05;;;1.80;;
27533;SDS011;14973;51.460;7.008;2023-09-19T13:57:15;12.43;;;2.40;;
27533;SDS011;14973;51.460;7.008;2023-09-19T13:59:41;6.75;;;1.85;;
27533;SDS011;14973;51.460;7.008;2023-09-19T14:02:07;9.55;;;2.25;;
27533;SDS011;14973;51.460;7.008;2023-09-19T14:04:33;10.82;;;2.28;;
27533;SDS011;14973;51.460;7.008;2023-09-19T14:06:59;11.82;;;2.15;;
27533;SDS011;14973;51.460;7.008;2023-09-19T14:09:26;8.82;;;2.13;;
27533;SDS011;14973;51.460;7.008;2023-09-19T14:11:51;11.23;;;2.22;;
27533;SDS011;14973;51.460;7.008;2023-09-19T14:14:18;12.38;;;1.73;;
27533;SDS011;14973;51.460;7.008;2023-09-19T14:16:44;7.25;;;1.55;;
27533;SDS011;14973;51.460;7.008;2023-09-19T14:19:10;12.13;;;1.83;;
27533;SDS011;14973;51.460;7.008;2023-09-19T14:21:36;15.57;;;2.97;;
27533;SDS011;14973;51.460;7.008;2023-09-19T14:24:02;13.73;;;2.00;;
27533;SDS011;14973;51.460;7.008;2023-09-19T14:26:28;13.55;;;1.83;;
27533;SDS011;14973;51.460;7.008;2023-09-19T14:28:54;8.88;;;1.52;;
27533;SDS011;14973;51.460;7.008;2023-09-19T14:31:20;15.00;;;1.80;;
27533;SDS011;14973;51.460;7.008;2023-09-19T14:33:45;12.35;;;1.90;;
27533;SDS011;14973;51.460;7.008;2023-09-19T14:36:17;12.30;;;1.88;;
27533;SDS011;14973;51.460;7.008;2023-09-19T14:38:44;11.02;;;1.77;;
27533;SDS011;14973;51.460;7.008;2023-09-19T14:41:09;14.48;;;2.00;;
27533;SDS011;14973;51.460;7.008;2023-09-19T14:43:35;10.35;;;1.75;;
27533;SDS011;14973;51.460;7.008;2023-09-19T14:46:07;16.17;;;1.98;;
27533;SDS011;14973;51.460;7.008;2023-09-19T14:48:32;14.93;;;2.03;;
27533;SDS011;14973;51.460;7.008;2023-09-19T14:51:06;7.68;;;1.50;;
27533;SDS011;14973;51.460;7.008;2023-09-19T14:53:35;9.55;;;1.65;;
27533;SDS011;14973;51.460;7.008;2023-09-19T14:56:03;9.40;;;2.00;;
27533;SDS011;14973;51.460;7.008;2023-09-19T14:58:30;10.02;;;1.73;;
27533;SDS011;14973;51.460;7.008;2023-09-19T15:01:03;8.75;;;1.60;;
27533;SDS011;14973;51.460;7.008;2023-09-19T15:03:36;11.32;;;1.90;;
27533;SDS011;14973;51.460;7.008;2023-09-19T15:06:02;7.57;;;1.88;;
27533;SDS011;14973;51.460;7.008;2023-09-19T15:08:31;11.88;;;1.38;;
27533;SDS011;14973;51.460;7.008;2023-09-19T15:10:59;5.03;;;1.67;;
27533;SDS011;14973;51.460;7.008;2023-09-19T15:13:28;11.77;;;1.75;;
27533;SDS011;14973;51.460;7.008;2023-09-19T15:15:58;7.95;;;1.80;;
27533;SDS011;14973;51.460;7.008;2023-09-19T15:18:26;8.52;;;1.40;;
27533;SDS011;14973;51.460;7.008;2023-09-19T15:20:52;12.10;;;2.47;;
27533;SDS011;14973;51.460;7.008;2023-09-19T15:23:18;8.80;;;1.55;;
27533;SDS011;14973;51.460;7.008;2023-09-19T15:25:47;8.55;;;1.90;;
27533;SDS011;14973;51.460;7.008;2023-09-19T15:28:16;10.60;;;4.38;;
27533;SDS011;14973;51.460;7.008;2023-09-19T15:30:42;6.55;;;1.27;;
27533;SDS011;14973;51.460;7.008;2023-09-19T15:33:08;7.85;;;1.70;;
27533;SDS011;14973;51.460;7.008;2023-09-19T15:35:34;9.60;;;2.05;;
27533;SDS011;14973;51.460;7.008;2023-09-19T15:38:01;14.35;;;2.33;;
27533;SDS011;14973;51.460;7.008;2023-09-19T15:40:27;3.97;;;1.40;;
27533;SDS011;14973;51.460;7.008;2023-09-19T15:42:54;10.95;;;1.65;;
27533;SDS011;14973;51.460;7.008;2023-09-19T15:45:21;8.40;;;1.25;;
27533;SDS011;14973;51.460;7.008;2023-09-19T15:47:47;15.82;;;1.60;;
27533;SDS011;14973;51.460;7.008;2023-09-19T15:50:12;9.75;;;1.48;;
27533;SDS011;14973;51.460;7.008;2023-09-19T15:52:41;12.45;;;1.60;;
27533;SDS011;14973;51.460;7.008;2023-09-19T15:55:07;14.23;;;1.73;;
27533;SDS011;14973;51.460;7.008;2023-09-19T15:57:36;17.67;;;1.42;;
27533;SDS011;14973;51.460;7.008;2023-09-19T16:00:03;7.13;;;1.45;;
27533;SDS011;14973;51.460;7.008;2023-09-19T16:02:35;9.18;;;1.90;;
27533;SDS011;14973;51.460;7.008;2023-09-19T16:05:01;12.38;;;1.52;;